createdAt,value
2018-09-21T00:01:47.928Z,10.37
2018-09-21T00:04:16.123Z,11.53
2018-09-21T00:06:44.287Z,12.00
2018-09-21T00:09:13.177Z,10.50
2018-09-21T00:11:41.448Z,11.93
2018-09-21T00:14:09.651Z,10.93
2018-09-21T00:16:37.837Z,11.30
2018-09-21T00:19:06.047Z,10.97
2018-09-21T00:21:34.252Z,11.43
2018-09-21T00:24:02.441Z,11.60
2018-09-21T00:26:30.628Z,11.70
2018-09-21T00:28:58.815Z,11.57
2018-09-21T00:31:26.995Z,11.17
2018-09-21T00:33:55.214Z,11.77
2018-09-21T00:36:23.400Z,12.03
2018-09-21T00:38:51.604Z,11.67
2018-09-21T00:41:19.807Z,11.70
2018-09-21T00:43:48.010Z,12.80
2018-09-21T00:46:16.203Z,11.43
2018-09-21T00:48:44.404Z,11.83
2018-09-21T00:51:12.591Z,15.77
2018-09-21T00:53:40.780Z,12.50
2018-09-21T00:56:08.969Z,12.37
2018-09-21T00:58:37.163Z,12.47
2018-09-21T01:01:05.367Z,12.27
2018-09-21T01:03:33.564Z,11.97
2018-09-21T01:06:01.747Z,10.87
2018-09-21T01:08:29.953Z,11.63
2018-09-21T01:10:58.151Z,11.23
2018-09-21T01:13:26.392Z,12.00
2018-09-21T01:15:54.599Z,12.77
2018-09-21T01:18:22.786Z,13.17
2018-09-21T01:20:50.977Z,11.10
2018-09-21T01:23:19.146Z,11.13
2018-09-21T01:25:47.343Z,11.57
2018-09-21T01:28:15.529Z,12.27
2018-09-21T01:30:43.723Z,12.70
2018-09-21T01:33:11.919Z,12.90
2018-09-21T01:35:40.167Z,12.60
2018-09-21T01:38:08.355Z,12.80
2018-09-21T01:40:36.570Z,13.00
2018-09-21T01:43:04.764Z,16.80
2018-09-21T01:45:32.954Z,11.17
2018-09-21T01:48:01.142Z,12.30
2018-09-21T01:50:29.386Z,11.20
2018-09-21T01:52:57.559Z,12.27
2018-09-21T01:55:25.748Z,12.33
2018-09-21T01:57:53.938Z,13.30
2018-09-21T02:00:22.125Z,13.70
2018-09-21T02:02:50.320Z,12.13
2018-09-21T02:05:18.504Z,11.87
2018-09-21T02:07:46.691Z,16.80
2018-09-21T02:10:15.980Z,13.00
2018-09-21T02:12:44.163Z,11.60
2018-09-21T02:15:12.366Z,11.27
2018-09-21T02:17:40.546Z,12.03
2018-09-21T02:20:08.730Z,16.00
2018-09-21T02:22:36.919Z,13.63
2018-09-21T02:25:05.112Z,10.97
2018-09-21T02:27:33.299Z,11.70
2018-09-21T02:30:02.252Z,12.07
2018-09-21T02:32:30.439Z,12.13
2018-09-21T02:34:58.832Z,12.60
2018-09-21T02:37:27.023Z,11.17
2018-09-21T02:39:55.215Z,11.90
2018-09-21T02:42:23.413Z,12.30
2018-09-21T02:44:51.608Z,12.10
2018-09-21T02:47:19.832Z,11.40
2018-09-21T02:49:48.020Z,11.43
2018-09-21T02:52:16.192Z,11.00
2018-09-21T02:54:44.400Z,11.30
2018-09-21T02:57:12.580Z,12.50
2018-09-21T02:59:40.779Z,12.43
2018-09-21T03:02:08.960Z,12.83
2018-09-21T03:04:41.303Z,12.00
2018-09-21T03:07:09.512Z,12.97
2018-09-21T03:09:37.731Z,12.60
2018-09-21T03:12:06.100Z,11.80
2018-09-21T03:14:34.284Z,12.93
2018-09-21T03:17:02.501Z,11.33
2018-09-21T03:19:30.823Z,11.50
2018-09-21T03:21:59.023Z,12.23
2018-09-21T03:24:27.227Z,11.13
2018-09-21T03:26:55.412Z,12.10
2018-09-21T03:29:23.603Z,11.60
2018-09-21T03:31:51.809Z,11.70
2018-09-21T03:34:20.022Z,12.63
2018-09-21T03:36:48.300Z,15.53
2018-09-21T03:39:16.594Z,11.00
2018-09-21T03:41:44.789Z,11.13
2018-09-21T03:44:12.983Z,16.13
2018-09-21T03:46:41.199Z,13.90
2018-09-21T03:49:09.384Z,11.30
2018-09-21T03:51:37.652Z,12.60
2018-09-21T03:54:05.841Z,11.67
2018-09-21T03:56:34.026Z,10.50
2018-09-21T03:59:02.249Z,12.20
2018-09-21T04:01:30.455Z,11.37
2018-09-21T04:03:58.656Z,13.20
2018-09-21T04:06:26.836Z,11.97
2018-09-21T04:08:55.175Z,10.43
2018-09-21T04:11:23.610Z,10.43
2018-09-21T04:13:52.122Z,10.93
2018-09-21T04:16:20.299Z,11.73
2018-09-21T04:18:48.523Z,14.60
2018-09-21T04:21:16.868Z,10.37
2018-09-21T04:23:45.056Z,10.40
2018-09-21T04:26:13.259Z,10.73
2018-09-21T04:28:41.440Z,11.07
2018-09-21T04:31:09.629Z,13.00
2018-09-21T04:33:37.814Z,9.77
2018-09-21T04:36:06.043Z,9.63
2018-09-21T04:38:34.203Z,11.40
2018-09-21T04:41:02.393Z,11.40
2018-09-21T04:43:30.756Z,9.23
2018-09-21T04:45:58.937Z,10.40
2018-09-21T04:48:27.145Z,10.00
2018-09-21T04:50:55.316Z,9.83
2018-09-21T04:53:23.740Z,11.33
2018-09-21T04:55:51.944Z,10.90
2018-09-21T04:58:20.154Z,10.93
2018-09-21T05:00:48.340Z,10.37
2018-09-21T05:03:16.541Z,10.23
2018-09-21T05:05:44.756Z,10.90
2018-09-21T05:08:12.949Z,10.77
2018-09-21T05:10:41.144Z,10.43
2018-09-21T05:13:09.339Z,11.93
2018-09-21T05:15:37.536Z,10.50
2018-09-21T05:18:05.748Z,10.63
2018-09-21T05:20:33.972Z,9.90
2018-09-21T05:23:02.153Z,10.40
2018-09-21T05:25:30.355Z,10.30
2018-09-21T05:27:58.576Z,10.00
2018-09-21T05:30:26.975Z,14.10
2018-09-21T05:32:55.161Z,11.43
2018-09-21T05:35:23.364Z,11.27
2018-09-21T05:37:51.589Z,12.37
2018-09-21T05:40:19.804Z,11.07
2018-09-21T05:42:48.070Z,11.80
2018-09-21T05:45:16.265Z,13.57
2018-09-21T05:47:44.451Z,11.83
2018-09-21T05:50:12.673Z,13.63
2018-09-21T05:52:40.877Z,14.27
2018-09-21T05:55:09.059Z,17.37
2018-09-21T05:57:37.284Z,11.30
2018-09-21T06:00:05.487Z,12.43
2018-09-21T06:02:33.700Z,13.60
2018-09-21T06:05:05.002Z,12.20
2018-09-21T06:07:33.789Z,12.27
2018-09-21T06:10:02.133Z,12.00
2018-09-21T06:12:30.328Z,11.43
2018-09-21T06:14:58.542Z,12.77
2018-09-21T06:17:26.755Z,11.63
2018-09-21T06:19:54.984Z,13.07
2018-09-21T06:22:23.222Z,14.90
2018-09-21T06:24:51.440Z,16.53
2018-09-21T06:27:19.652Z,12.83
2018-09-21T06:29:48.172Z,11.80
2018-09-21T06:32:16.390Z,13.83
2018-09-21T06:34:44.590Z,11.60
2018-09-21T06:37:12.817Z,11.50
2018-09-21T06:39:41.030Z,13.93
2018-09-21T06:42:09.236Z,13.80
2018-09-21T06:44:37.441Z,11.90
2018-09-21T06:47:05.661Z,11.90
2018-09-21T06:49:33.870Z,14.23
2018-09-21T06:52:02.076Z,11.77
2018-09-21T06:54:30.288Z,11.87
2018-09-21T06:56:58.488Z,11.17
2018-09-21T06:59:26.707Z,11.70
2018-09-21T07:01:54.968Z,12.47
2018-09-21T07:04:23.104Z,17.17
2018-09-21T07:06:51.328Z,12.10
2018-09-21T07:09:19.551Z,10.83
2018-09-21T07:11:47.852Z,12.97
2018-09-21T07:14:16.041Z,12.97
2018-09-21T07:16:44.257Z,14.60
2018-09-21T07:19:12.463Z,11.37
2018-09-21T07:21:40.671Z,11.40
2018-09-21T07:24:08.910Z,11.60
2018-09-21T07:26:37.100Z,12.50
2018-09-21T07:29:05.315Z,11.40
2018-09-21T07:31:33.600Z,11.60
2018-09-21T07:34:01.796Z,11.10
2018-09-21T07:36:30.004Z,15.13
2018-09-21T07:38:58.214Z,10.40
2018-09-21T07:41:26.465Z,10.30
2018-09-21T07:43:54.677Z,10.70
2018-09-21T07:46:22.883Z,12.17
2018-09-21T07:48:51.104Z,12.00
2018-09-21T07:51:19.329Z,10.23
2018-09-21T07:53:47.596Z,10.83
2018-09-21T07:56:15.876Z,11.30
2018-09-21T07:58:44.059Z,9.53
2018-09-21T08:01:12.257Z,8.43
2018-09-21T08:03:40.452Z,9.20
2018-09-21T08:06:08.664Z,9.47
2018-09-21T08:08:36.868Z,8.50
2018-09-21T08:11:05.055Z,9.80
2018-09-21T08:13:33.254Z,9.77
2018-09-21T08:16:01.451Z,9.80
2018-09-21T08:18:29.673Z,9.23
2018-09-21T08:20:57.919Z,12.00
2018-09-21T08:23:26.116Z,8.50
2018-09-21T08:25:54.308Z,10.10
2018-09-21T08:28:22.622Z,8.80
2018-09-21T08:30:50.896Z,7.10
2018-09-21T08:33:19.186Z,7.90
2018-09-21T08:35:47.316Z,8.07
2018-09-21T08:38:15.519Z,10.93
2018-09-21T08:40:43.943Z,7.37
2018-09-21T08:43:12.143Z,7.13
2018-09-21T08:45:40.397Z,7.17
2018-09-21T08:48:08.482Z,7.23
2018-09-21T08:50:36.667Z,7.83
2018-09-21T08:53:04.855Z,8.13
2018-09-21T08:55:33.024Z,8.83
2018-09-21T08:58:01.223Z,8.40
2018-09-21T09:00:29.399Z,9.43
2018-09-21T09:02:57.749Z,9.13
2018-09-21T09:05:26.829Z,7.53
2018-09-21T09:07:55.012Z,8.70
2018-09-21T09:10:23.195Z,7.77
2018-09-21T09:12:51.385Z,10.73
2018-09-21T09:15:19.571Z,10.33
2018-09-21T09:17:47.771Z,12.27
2018-09-21T09:20:15.975Z,19.87
2018-09-21T09:22:44.171Z,9.20
2018-09-21T09:25:12.344Z,16.80
2018-09-21T09:27:40.577Z,11.60
2018-09-21T09:30:08.922Z,15.00
2018-09-21T09:32:37.028Z,17.73
2018-09-21T09:35:05.228Z,12.47
2018-09-21T09:37:33.421Z,12.50
2018-09-21T09:40:01.601Z,10.73
2018-09-21T09:42:29.799Z,14.73
2018-09-21T09:44:57.999Z,10.47
2018-09-21T09:47:26.185Z,13.40
2018-09-21T09:49:54.362Z,11.30
2018-09-21T09:52:22.542Z,17.60
2018-09-21T09:54:50.852Z,17.37
2018-09-21T09:57:18.923Z,15.20
2018-09-21T09:59:47.108Z,12.70
2018-09-21T10:02:15.297Z,14.90
2018-09-21T10:04:43.515Z,12.17
2018-09-21T10:07:11.704Z,10.33
2018-09-21T10:09:39.901Z,12.37
2018-09-21T10:12:08.090Z,10.37
2018-09-21T10:14:36.288Z,16.20
2018-09-21T10:17:04.484Z,12.23
2018-09-21T10:19:32.671Z,14.70
2018-09-21T10:22:00.864Z,14.93
2018-09-21T10:24:29.063Z,15.43
2018-09-21T10:26:57.531Z,11.43
2018-09-21T10:29:25.607Z,12.20
2018-09-21T10:31:53.779Z,10.70
2018-09-21T10:34:21.964Z,10.40
2018-09-21T10:36:50.259Z,14.00
2018-09-21T10:39:18.601Z,9.50
2018-09-21T10:41:46.650Z,9.20
2018-09-21T10:44:14.828Z,12.43
2018-09-21T10:46:43.031Z,9.20
2018-09-21T10:49:11.259Z,11.60
2018-09-21T10:51:39.431Z,8.10
2018-09-21T10:54:07.691Z,10.00
2018-09-21T10:56:35.876Z,10.00
2018-09-21T10:59:04.061Z,17.33
2018-09-21T11:01:32.241Z,8.63
2018-09-21T11:04:00.422Z,13.57
2018-09-21T11:06:28.636Z,15.87
2018-09-21T11:08:56.828Z,12.03
2018-09-21T11:11:25.016Z,10.53
2018-09-21T11:13:53.208Z,9.77
2018-09-21T11:16:21.403Z,9.57
2018-09-21T11:18:49.602Z,13.57
2018-09-21T11:21:17.800Z,10.37
2018-09-21T11:23:45.983Z,12.07
2018-09-21T11:26:14.168Z,9.50
2018-09-21T11:28:42.347Z,9.33
2018-09-21T11:31:10.540Z,12.43
2018-09-21T11:33:38.769Z,12.27
2018-09-21T11:36:06.984Z,13.77
2018-09-21T11:38:35.178Z,8.70
2018-09-21T11:41:03.416Z,15.43
2018-09-21T11:43:31.599Z,7.87
2018-09-21T11:45:59.784Z,12.67
2018-09-21T11:48:27.960Z,11.07
2018-09-21T11:50:56.160Z,12.47
2018-09-21T11:53:24.342Z,12.27
2018-09-21T11:55:52.548Z,11.80
2018-09-21T11:58:20.783Z,11.90
2018-09-21T12:00:48.971Z,15.67
2018-09-21T12:03:17.179Z,10.37
2018-09-21T12:05:45.376Z,8.50
2018-09-21T12:08:13.606Z,19.60
2018-09-21T12:10:41.834Z,9.97
2018-09-21T12:13:10.487Z,10.70
2018-09-21T12:15:38.683Z,17.30
2018-09-21T12:18:06.863Z,11.63
2018-09-21T12:20:35.055Z,15.27
2018-09-21T12:23:03.245Z,10.53
2018-09-21T12:25:31.445Z,8.63
2018-09-21T12:27:59.631Z,9.93
2018-09-21T12:30:27.888Z,11.73
2018-09-21T12:32:56.030Z,8.90
2018-09-21T12:35:24.323Z,8.77
2018-09-21T12:37:52.670Z,12.70
2018-09-21T12:40:20.944Z,9.60
2018-09-21T12:42:49.144Z,10.77
2018-09-21T12:45:17.355Z,8.83
2018-09-21T12:47:45.611Z,9.93
2018-09-21T12:50:13.895Z,10.67
2018-09-21T12:52:42.200Z,10.67
2018-09-21T12:55:10.431Z,10.97
2018-09-21T12:57:38.741Z,9.20
2018-09-21T13:00:08.364Z,8.10
2018-09-21T13:02:37.122Z,8.30
2018-09-21T13:05:06.500Z,7.97
2018-09-21T13:07:34.728Z,8.13
2018-09-21T13:10:03.239Z,7.30
2018-09-21T13:12:31.717Z,6.97
2018-09-21T13:15:00.271Z,7.70
2018-09-21T13:17:28.483Z,12.40
2018-09-21T13:19:56.676Z,10.47
2018-09-21T13:22:24.912Z,10.20
2018-09-21T13:24:53.104Z,7.23
2018-09-21T13:27:21.291Z,10.93
2018-09-21T13:29:49.512Z,11.53
2018-09-21T13:32:17.739Z,7.27
2018-09-21T13:34:46.173Z,6.50
2018-09-21T13:37:14.363Z,7.50
2018-09-21T13:39:42.554Z,6.50
2018-09-21T13:42:10.747Z,6.80
2018-09-21T13:44:38.943Z,6.80
2018-09-21T13:47:07.147Z,7.50
2018-09-21T13:49:35.334Z,7.03
2018-09-21T13:52:03.563Z,6.53
2018-09-21T13:54:31.706Z,6.87
2018-09-21T13:56:59.879Z,6.63
2018-09-21T13:59:28.273Z,8.83
2018-09-21T14:01:56.472Z,5.90
2018-09-21T14:04:25.888Z,6.40
2018-09-21T14:06:56.064Z,6.77
2018-09-21T14:09:24.444Z,6.03
2018-09-21T14:11:52.740Z,7.23
2018-09-21T14:14:22.019Z,5.00
2018-09-21T14:16:50.979Z,4.90
2018-09-21T14:19:19.447Z,4.70
2018-09-21T14:21:47.816Z,5.70
2018-09-21T14:24:16.035Z,6.53
2018-09-21T14:26:44.307Z,8.50
2018-09-21T14:29:13.623Z,5.23
2018-09-21T14:31:42.189Z,4.77
2018-09-21T14:34:10.675Z,7.00
2018-09-21T14:36:39.131Z,5.63
2018-09-21T14:39:10.619Z,4.90
2018-09-21T14:41:38.956Z,7.03
2018-09-21T14:44:07.903Z,4.83
2018-09-21T14:46:36.095Z,6.40
2018-09-21T14:49:04.320Z,5.03
2018-09-21T14:51:32.520Z,5.03
2018-09-21T14:54:00.691Z,5.00
2018-09-21T14:56:28.874Z,5.23
2018-09-21T14:58:57.077Z,5.20
2018-09-21T15:01:25.267Z,5.63
2018-09-21T15:03:53.475Z,6.00
2018-09-21T15:06:21.928Z,5.30
2018-09-21T15:08:50.142Z,5.20
2018-09-21T15:11:18.432Z,5.87
2018-09-21T15:13:46.968Z,6.13
2018-09-21T15:16:15.143Z,5.60
2018-09-21T15:18:43.379Z,5.50
2018-09-21T15:21:11.570Z,6.30
2018-09-21T15:23:39.773Z,5.70
2018-09-21T15:26:07.971Z,6.20
2018-09-21T15:28:36.162Z,6.07
2018-09-21T15:31:04.347Z,6.40
2018-09-21T15:33:32.543Z,5.70
2018-09-21T15:36:00.731Z,5.87
2018-09-21T15:38:28.912Z,6.40
2018-09-21T15:40:57.163Z,5.60
2018-09-21T15:43:25.593Z,6.23
2018-09-21T15:45:53.758Z,5.20
2018-09-21T15:48:22.014Z,5.50
2018-09-21T15:50:50.247Z,6.57
2018-09-21T15:53:18.641Z,6.93
2018-09-21T15:55:46.915Z,5.47
2018-09-21T15:58:15.965Z,5.20
2018-09-21T16:00:44.140Z,5.43
2018-09-21T16:03:13.368Z,6.60
2018-09-21T16:05:41.555Z,5.50
2018-09-21T16:08:09.742Z,5.30
2018-09-21T16:10:37.932Z,6.43
2018-09-21T16:13:06.143Z,5.87
2018-09-21T16:15:34.324Z,5.27
2018-09-21T16:18:02.517Z,5.30
2018-09-21T16:20:30.708Z,5.27
2018-09-21T16:22:58.900Z,5.70
2018-09-21T16:25:27.226Z,6.00
2018-09-21T16:27:55.414Z,4.80
2018-09-21T16:30:23.736Z,4.70
2018-09-21T16:32:51.987Z,5.20
2018-09-21T16:35:20.096Z,5.63
2018-09-21T16:37:48.415Z,5.90
2018-09-21T16:40:16.596Z,6.70
2018-09-21T16:42:45.087Z,6.00
2018-09-21T16:45:13.277Z,5.80
2018-09-21T16:47:41.462Z,5.53
2018-09-21T16:50:09.684Z,4.73
2018-09-21T16:52:37.908Z,4.90
2018-09-21T16:55:06.112Z,6.60
2018-09-21T16:57:34.289Z,5.17
2018-09-21T17:00:02.566Z,4.87
2018-09-21T17:02:30.751Z,4.53
2018-09-21T17:04:58.938Z,4.50
2018-09-21T17:07:27.166Z,5.70
2018-09-21T17:09:55.379Z,5.00
2018-09-21T17:12:23.657Z,4.87
2018-09-21T17:14:51.855Z,5.03
2018-09-21T17:17:20.040Z,7.47
2018-09-21T17:19:48.260Z,5.30
2018-09-21T17:22:16.459Z,10.73
2018-09-21T17:24:44.632Z,4.80
2018-09-21T17:27:12.834Z,7.83
2018-09-21T17:29:41.022Z,6.40
2018-09-21T17:32:09.289Z,6.37
2018-09-21T17:34:37.403Z,5.00
2018-09-21T17:37:05.620Z,6.67
2018-09-21T17:39:40.390Z,4.70
2018-09-21T17:42:08.580Z,4.93
2018-09-21T17:44:36.960Z,5.83
2018-09-21T17:47:05.197Z,7.13
2018-09-21T17:49:33.422Z,10.70
2018-09-21T17:52:01.613Z,6.00
2018-09-21T17:54:29.798Z,5.80
2018-09-21T17:56:58.083Z,6.93
2018-09-21T17:59:26.267Z,5.50
2018-09-21T18:01:54.445Z,5.73
2018-09-21T18:04:22.675Z,5.47
2018-09-21T18:06:50.872Z,6.40
2018-09-21T18:09:19.079Z,5.83
2018-09-21T18:11:47.278Z,4.93
2018-09-21T18:14:15.464Z,8.43
2018-09-21T18:16:43.707Z,7.93
2018-09-21T18:19:11.960Z,7.10
2018-09-21T18:21:40.181Z,7.37
2018-09-21T18:24:08.555Z,5.40
2018-09-21T18:26:36.733Z,7.80
2018-09-21T18:29:04.935Z,7.30
2018-09-21T18:31:33.132Z,7.50
2018-09-21T18:34:01.322Z,5.93
2018-09-21T18:36:29.515Z,6.30
2018-09-21T18:38:57.691Z,7.07
2018-09-21T18:41:26.379Z,8.73
2018-09-21T18:43:54.572Z,6.80
2018-09-21T18:46:22.764Z,10.67
2018-09-21T18:48:50.928Z,9.30
2018-09-21T18:51:19.110Z,7.20
2018-09-21T18:53:47.336Z,7.20
2018-09-21T18:56:15.517Z,7.60
2018-09-21T18:58:43.720Z,9.00
2018-09-21T19:01:11.897Z,5.80
2018-09-21T19:03:40.087Z,5.97
2018-09-21T19:06:09.135Z,8.87
2018-09-21T19:08:37.343Z,5.80
2018-09-21T19:11:05.798Z,6.57
2018-09-21T19:13:33.971Z,9.13
2018-09-21T19:16:02.166Z,7.33
2018-09-21T19:18:30.357Z,7.63
2018-09-21T19:20:58.554Z,6.00
2018-09-21T19:23:26.743Z,6.60
2018-09-21T19:25:54.914Z,7.07
2018-09-21T19:28:23.744Z,7.67
2018-09-21T19:30:51.923Z,7.93
2018-09-21T19:33:20.207Z,6.37
2018-09-21T19:35:48.388Z,6.33
2018-09-21T19:38:16.619Z,7.83
2018-09-21T19:40:45.440Z,6.67
2018-09-21T19:43:13.632Z,8.40
2018-09-21T19:45:41.936Z,12.20
2018-09-21T19:48:10.136Z,10.70
2018-09-21T19:50:38.293Z,11.97
2018-09-21T19:53:06.589Z,10.67
2018-09-21T19:55:34.751Z,7.43
2018-09-21T19:58:03.135Z,12.83
2018-09-21T20:00:31.322Z,10.60
2018-09-21T20:02:59.539Z,9.33
2018-09-21T20:05:27.747Z,7.83
2018-09-21T20:07:55.940Z,7.60
2018-09-21T20:10:24.124Z,13.00
2018-09-21T20:12:52.322Z,7.20
2018-09-21T20:15:20.679Z,13.43
2018-09-21T20:17:49.089Z,10.43
2018-09-21T20:20:17.321Z,7.30
2018-09-21T20:22:45.508Z,9.13
2018-09-21T20:25:13.750Z,7.90
2018-09-21T20:27:41.955Z,13.33
2018-09-21T20:30:15.564Z,13.20
2018-09-21T20:32:49.123Z,17.90
2018-09-21T20:35:17.346Z,9.67
2018-09-21T20:37:45.540Z,7.20
2018-09-21T20:40:13.717Z,8.97
2018-09-21T20:42:41.896Z,17.60
2018-09-21T20:45:10.411Z,15.20
2018-09-21T20:47:38.597Z,9.80
2018-09-21T20:50:07.023Z,12.53
2018-09-21T20:52:35.303Z,11.27
2018-09-21T20:55:03.487Z,8.70
2018-09-21T20:57:31.735Z,11.33
2018-09-21T20:59:59.944Z,11.63
2018-09-21T21:02:28.313Z,8.53
2018-09-21T21:04:56.555Z,10.77
2018-09-21T21:07:24.765Z,12.70
2018-09-21T21:09:52.968Z,10.43
2018-09-21T21:12:21.152Z,9.80
2018-09-21T21:14:49.342Z,8.50
2018-09-21T21:17:17.529Z,10.20
2018-09-21T21:19:45.708Z,8.93
2018-09-21T21:22:13.977Z,12.60
2018-09-21T21:24:42.103Z,10.60
2018-09-21T21:27:10.280Z,19.33
2018-09-21T21:29:38.468Z,8.27
2018-09-21T21:32:06.672Z,17.03
2018-09-21T21:34:35.147Z,10.90
2018-09-21T21:37:03.329Z,9.90
2018-09-21T21:39:31.507Z,12.70
2018-09-21T21:41:59.785Z,11.57
2018-09-21T21:44:27.923Z,13.30
2018-09-21T21:46:56.117Z,10.63
2018-09-21T21:49:24.326Z,10.07
2018-09-21T21:51:52.513Z,10.90
2018-09-21T21:54:20.695Z,15.67
2018-09-21T21:56:48.876Z,12.83
2018-09-21T21:59:17.080Z,14.17
2018-09-21T22:01:45.989Z,10.50
2018-09-21T22:04:14.883Z,16.57
2018-09-21T22:06:43.082Z,14.27
2018-09-21T22:09:12.261Z,14.30
2018-09-21T22:11:45.811Z,10.63
2018-09-21T22:14:14.557Z,13.03
2018-09-21T22:16:42.771Z,8.00
2018-09-21T22:19:11.513Z,15.23
2018-09-21T22:21:39.750Z,11.40
2018-09-21T22:24:07.935Z,13.37
2018-09-21T22:26:36.157Z,11.33
2018-09-21T22:29:04.314Z,11.07
2018-09-21T22:31:32.501Z,15.73
2018-09-21T22:34:00.703Z,15.63
2018-09-21T22:36:28.919Z,17.23
2018-09-21T22:38:57.096Z,10.50
2018-09-21T22:41:25.299Z,13.53
2018-09-21T22:43:53.468Z,16.47
2018-09-21T22:46:21.932Z,12.53
2018-09-21T22:48:50.149Z,13.00
2018-09-21T22:51:18.605Z,12.60
2018-09-21T22:53:46.783Z,14.30
2018-09-21T22:56:14.974Z,18.83
2018-09-21T22:58:43.164Z,13.13
2018-09-21T23:01:11.812Z,13.60
2018-09-21T23:03:40.091Z,17.17
2018-09-21T23:06:08.568Z,16.20
2018-09-21T23:08:36.802Z,16.33
2018-09-21T23:11:05.035Z,10.77
2018-09-21T23:13:33.223Z,17.23
2018-09-21T23:16:01.414Z,18.63
2018-09-21T23:18:29.612Z,12.40
2018-09-21T23:20:57.788Z,19.33
2018-09-21T23:23:26.195Z,12.10
2018-09-21T23:25:54.372Z,11.93
2018-09-21T23:28:22.555Z,15.03
2018-09-21T23:30:51.073Z,10.03
2018-09-21T23:33:19.255Z,20.50
2018-09-21T23:35:47.475Z,22.53
2018-09-21T23:38:15.657Z,16.70
2018-09-21T23:40:43.844Z,11.93
2018-09-21T23:43:12.063Z,16.53
2018-09-21T23:45:40.252Z,17.63
2018-09-21T23:48:08.444Z,15.67
2018-09-21T23:50:36.642Z,17.60
2018-09-21T23:53:04.815Z,14.90
2018-09-21T23:55:33.020Z,11.63
2018-09-21T23:58:01.203Z,17.77
